sensor_id;sensor_type;location;lat;lon;timestamp;P1;durP1;ratioP1;P2;durP2;ratioP2
15577;SDS011;17667;45.598;5.214;2023-05-07T00:01:10;0.10;;;0.10;;
15577;SDS011;17667;45.598;5.214;2023-05-07T00:03:57;0.17;;;0.17;;
15577;SDS011;17667;45.598;5.214;2023-05-07T00:06:45;0.10;;;0.10;;
15577;SDS011;17667;45.598;5.214;2023-05-07T00:09:33;0.20;;;0.20;;
15577;SDS011;17667;45.598;5.214;2023-05-07T00:12:22;0.10;;;0.10;;
15577;SDS011;17667;45.598;5.214;2023-05-07T00:15:09;0.20;;;0.20;;
15577;SDS011;17667;45.598;5.214;2023-05-07T00:17:57;0.20;;;0.20;;
15577;SDS011;17667;45.598;5.214;2023-05-07T00:20:45;0.37;;;0.13;;
15577;SDS011;17667;45.598;5.214;2023-05-07T00:23:33;0.17;;;0.17;;
15577;SDS011;17667;45.598;5.214;2023-05-07T00:26:21;0.20;;;0.20;;
15577;SDS011;17667;45.598;5.214;2023-05-07T00:29:11;0.20;;;0.20;;
15577;SDS011;17667;45.598;5.214;2023-05-07T00:31:58;0.23;;;0.23;;
15577;SDS011;17667;45.598;5.214;2023-05-07T00:34:46;0.20;;;0.20;;
15577;SDS011;17667;45.598;5.214;2023-05-07T00:37:34;0.10;;;0.10;;
15577;SDS011;17667;45.598;5.214;2023-05-07T00:40:21;0.20;;;0.20;;
15577;SDS011;17667;45.598;5.214;2023-05-07T00:43:09;0.30;;;0.30;;
15577;SDS011;17667;45.598;5.214;2023-05-07T00:46:01;0.10;;;0.10;;
15577;SDS011;17667;45.598;5.214;2023-05-07T00:48:49;0.30;;;0.30;;
15577;SDS011;17667;45.598;5.214;2023-05-07T00:51:37;0.30;;;0.30;;
15577;SDS011;17667;45.598;5.214;2023-05-07T00:54:25;0.20;;;0.20;;
15577;SDS011;17667;45.598;5.214;2023-05-07T00:57:15;0.10;;;0.10;;
15577;SDS011;17667;45.598;5.214;2023-05-07T01:00:03;0.20;;;0.20;;
15577;SDS011;17667;45.598;5.214;2023-05-07T01:02:53;0.27;;;0.27;;
15577;SDS011;17667;45.598;5.214;2023-05-07T01:05:40;0.20;;;0.20;;
15577;SDS011;17667;45.598;5.214;2023-05-07T01:08:29;0.20;;;0.20;;
15577;SDS011;17667;45.598;5.214;2023-05-07T01:11:17;0.20;;;0.20;;
15577;SDS011;17667;45.598;5.214;2023-05-07T01:14:06;0.40;;;0.40;;
15577;SDS011;17667;45.598;5.214;2023-05-07T01:16:55;0.20;;;0.20;;
15577;SDS011;17667;45.598;5.214;2023-05-07T01:19:44;0.30;;;0.30;;
15577;SDS011;17667;45.598;5.214;2023-05-07T01:22:35;0.20;;;0.20;;
15577;SDS011;17667;45.598;5.214;2023-05-07T01:25:25;0.20;;;0.20;;
15577;SDS011;17667;45.598;5.214;2023-05-07T01:28:16;0.30;;;0.30;;
15577;SDS011;17667;45.598;5.214;2023-05-07T01:31:04;0.20;;;0.20;;
15577;SDS011;17667;45.598;5.214;2023-05-07T01:33:53;0.13;;;0.13;;
15577;SDS011;17667;45.598;5.214;2023-05-07T01:36:41;0.20;;;0.20;;
15577;SDS011;17667;45.598;5.214;2023-05-07T01:39:32;0.20;;;0.20;;
15577;SDS011;17667;45.598;5.214;2023-05-07T01:42:20;0.30;;;0.30;;
15577;SDS011;17667;45.598;5.214;2023-05-07T01:45:09;0.20;;;0.20;;
15577;SDS011;17667;45.598;5.214;2023-05-07T01:47:57;0.20;;;0.20;;
15577;SDS011;17667;45.598;5.214;2023-05-07T01:50:46;0.10;;;0.10;;
15577;SDS011;17667;45.598;5.214;2023-05-07T01:53:35;0.20;;;0.20;;
15577;SDS011;17667;45.598;5.214;2023-05-07T01:56:25;0.47;;;0.20;;
15577;SDS011;17667;45.598;5.214;2023-05-07T01:59:13;0.20;;;0.20;;
15577;SDS011;17667;45.598;5.214;2023-05-07T02:02:01;0.10;;;0.10;;
15577;SDS011;17667;45.598;5.214;2023-05-07T02:04:50;0.10;;;0.10;;
15577;SDS011;17667;45.598;5.214;2023-05-07T02:07:38;0.40;;;0.30;;
15577;SDS011;17667;45.598;5.214;2023-05-07T02:10:26;0.20;;;0.20;;
15577;SDS011;17667;45.598;5.214;2023-05-07T02:13:15;0.10;;;0.10;;
15577;SDS011;17667;45.598;5.214;2023-05-07T02:16:03;0.20;;;0.20;;
15577;SDS011;17667;45.598;5.214;2023-05-07T02:18:51;0.30;;;0.30;;
15577;SDS011;17667;45.598;5.214;2023-05-07T02:21:39;0.20;;;0.20;;
15577;SDS011;17667;45.598;5.214;2023-05-07T02:24:26;0.30;;;0.30;;
15577;SDS011;17667;45.598;5.214;2023-05-07T02:27:14;0.30;;;0.30;;
15577;SDS011;17667;45.598;5.214;2023-05-07T02:30:05;0.30;;;0.30;;
15577;SDS011;17667;45.598;5.214;2023-05-07T02:32:54;0.30;;;0.30;;
15577;SDS011;17667;45.598;5.214;2023-05-07T02:35:41;0.30;;;0.30;;
15577;SDS011;17667;45.598;5.214;2023-05-07T02:38:31;0.30;;;0.30;;
15577;SDS011;17667;45.598;5.214;2023-05-07T02:41:19;0.20;;;0.20;;
15577;SDS011;17667;45.598;5.214;2023-05-07T02:44:06;0.20;;;0.20;;
15577;SDS011;17667;45.598;5.214;2023-05-07T02:46:57;0.30;;;0.30;;
15577;SDS011;17667;45.598;5.214;2023-05-07T02:49:44;0.30;;;0.30;;
15577;SDS011;17667;45.598;5.214;2023-05-07T02:52:32;0.37;;;0.37;;
15577;SDS011;17667;45.598;5.214;2023-05-07T02:55:20;0.30;;;0.30;;
15577;SDS011;17667;45.598;5.214;2023-05-07T02:58:07;0.30;;;0.30;;
15577;SDS011;17667;45.598;5.214;2023-05-07T03:00:56;0.30;;;0.30;;
15577;SDS011;17667;45.598;5.214;2023-05-07T03:03:59;0.20;;;0.20;;
15577;SDS011;17667;45.598;5.214;2023-05-07T03:06:46;0.30;;;0.30;;
15577;SDS011;17667;45.598;5.214;2023-05-07T03:09:34;0.20;;;0.20;;
15577;SDS011;17667;45.598;5.214;2023-05-07T03:12:22;0.20;;;0.20;;
15577;SDS011;17667;45.598;5.214;2023-05-07T03:15:10;0.20;;;0.20;;
15577;SDS011;17667;45.598;5.214;2023-05-07T03:17:59;0.30;;;0.30;;
15577;SDS011;17667;45.598;5.214;2023-05-07T03:20:49;0.40;;;0.40;;
15577;SDS011;17667;45.598;5.214;2023-05-07T03:23:36;0.20;;;0.20;;
15577;SDS011;17667;45.598;5.214;2023-05-07T03:26:24;0.30;;;0.30;;
15577;SDS011;17667;45.598;5.214;2023-05-07T03:29:12;0.20;;;0.20;;
15577;SDS011;17667;45.598;5.214;2023-05-07T03:31:59;0.30;;;0.30;;
15577;SDS011;17667;45.598;5.214;2023-05-07T03:34:47;0.30;;;0.30;;
15577;SDS011;17667;45.598;5.214;2023-05-07T03:37:37;0.30;;;0.30;;
15577;SDS011;17667;45.598;5.214;2023-05-07T03:40:25;0.30;;;0.30;;
15577;SDS011;17667;45.598;5.214;2023-05-07T03:43:14;0.23;;;0.23;;
15577;SDS011;17667;45.598;5.214;2023-05-07T03:46:06;0.27;;;0.27;;
15577;SDS011;17667;45.598;5.214;2023-05-07T03:48:54;0.10;;;0.10;;
15577;SDS011;17667;45.598;5.214;2023-05-07T03:51:41;0.20;;;0.20;;
15577;SDS011;17667;45.598;5.214;2023-05-07T03:54:31;0.20;;;0.20;;
15577;SDS011;17667;45.598;5.214;2023-05-07T03:57:18;0.20;;;0.20;;
15577;SDS011;17667;45.598;5.214;2023-05-07T04:00:07;0.20;;;0.20;;
15577;SDS011;17667;45.598;5.214;2023-05-07T04:03:05;0.30;;;0.30;;
15577;SDS011;17667;45.598;5.214;2023-05-07T04:05:53;0.20;;;0.20;;
15577;SDS011;17667;45.598;5.214;2023-05-07T04:08:41;0.30;;;0.20;;
15577;SDS011;17667;45.598;5.214;2023-05-07T04:11:30;0.20;;;0.20;;
15577;SDS011;17667;45.598;5.214;2023-05-07T04:14:18;0.20;;;0.20;;
15577;SDS011;17667;45.598;5.214;2023-05-07T04:17:07;0.20;;;0.20;;
15577;SDS011;17667;45.598;5.214;2023-05-07T04:19:56;0.20;;;0.20;;
15577;SDS011;17667;45.598;5.214;2023-05-07T04:22:44;0.30;;;0.30;;
15577;SDS011;17667;45.598;5.214;2023-05-07T04:25:32;0.20;;;0.20;;
15577;SDS011;17667;45.598;5.214;2023-05-07T04:28:28;0.20;;;0.20;;
15577;SDS011;17667;45.598;5.214;2023-05-07T04:31:16;0.20;;;0.20;;
15577;SDS011;17667;45.598;5.214;2023-05-07T04:34:08;0.10;;;0.10;;
15577;SDS011;17667;45.598;5.214;2023-05-07T04:36:58;0.17;;;0.17;;
15577;SDS011;17667;45.598;5.214;2023-05-07T04:39:46;0.10;;;0.10;;
15577;SDS011;17667;45.598;5.214;2023-05-07T04:42:34;0.30;;;0.30;;
15577;SDS011;17667;45.598;5.214;2023-05-07T04:45:23;0.27;;;0.27;;
15577;SDS011;17667;45.598;5.214;2023-05-07T04:48:12;0.20;;;0.20;;
15577;SDS011;17667;45.598;5.214;2023-05-07T04:51:02;0.20;;;0.20;;
15577;SDS011;17667;45.598;5.214;2023-05-07T04:53:50;0.30;;;0.30;;
15577;SDS011;17667;45.598;5.214;2023-05-07T04:56:38;0.20;;;0.20;;
15577;SDS011;17667;45.598;5.214;2023-05-07T04:59:26;0.20;;;0.20;;
15577;SDS011;17667;45.598;5.214;2023-05-07T05:02:15;0.23;;;0.23;;
15577;SDS011;17667;45.598;5.214;2023-05-07T05:05:05;0.30;;;0.30;;
15577;SDS011;17667;45.598;5.214;2023-05-07T05:07:53;0.40;;;0.40;;
15577;SDS011;17667;45.598;5.214;2023-05-07T05:10:41;0.30;;;0.30;;
15577;SDS011;17667;45.598;5.214;2023-05-07T05:13:29;0.20;;;0.20;;
15577;SDS011;17667;45.598;5.214;2023-05-07T05:16:19;0.20;;;0.20;;
15577;SDS011;17667;45.598;5.214;2023-05-07T05:19:09;0.20;;;0.20;;
15577;SDS011;17667;45.598;5.214;2023-05-07T05:21:58;0.30;;;0.30;;
15577;SDS011;17667;45.598;5.214;2023-05-07T05:24:47;0.20;;;0.20;;
15577;SDS011;17667;45.598;5.214;2023-05-07T05:27:34;0.30;;;0.30;;
15577;SDS011;17667;45.598;5.214;2023-05-07T05:30:23;0.30;;;0.30;;
15577;SDS011;17667;45.598;5.214;2023-05-07T05:33:11;0.20;;;0.20;;
15577;SDS011;17667;45.598;5.214;2023-05-07T05:36:00;0.30;;;0.30;;
15577;SDS011;17667;45.598;5.214;2023-05-07T05:38:48;0.30;;;0.30;;
15577;SDS011;17667;45.598;5.214;2023-05-07T05:41:35;0.40;;;0.40;;
15577;SDS011;17667;45.598;5.214;2023-05-07T05:44:23;0.30;;;0.30;;
15577;SDS011;17667;45.598;5.214;2023-05-07T05:47:11;0.20;;;0.20;;
15577;SDS011;17667;45.598;5.214;2023-05-07T05:49:58;0.30;;;0.30;;
15577;SDS011;17667;45.598;5.214;2023-05-07T05:52:48;0.30;;;0.30;;
15577;SDS011;17667;45.598;5.214;2023-05-07T05:55:36;0.30;;;0.30;;
15577;SDS011;17667;45.598;5.214;2023-05-07T05:58:25;0.30;;;0.30;;
15577;SDS011;17667;45.598;5.214;2023-05-07T06:01:17;0.30;;;0.30;;
15577;SDS011;17667;45.598;5.214;2023-05-07T06:04:08;0.50;;;0.40;;
15577;SDS011;17667;45.598;5.214;2023-05-07T06:06:55;0.30;;;0.30;;
15577;SDS011;17667;45.598;5.214;2023-05-07T06:09:45;0.30;;;0.30;;
15577;SDS011;17667;45.598;5.214;2023-05-07T06:12:36;0.40;;;0.40;;
15577;SDS011;17667;45.598;5.214;2023-05-07T06:15:24;0.30;;;0.30;;
15577;SDS011;17667;45.598;5.214;2023-05-07T06:18:11;0.30;;;0.30;;
15577;SDS011;17667;45.598;5.214;2023-05-07T06:20:59;0.30;;;0.30;;
15577;SDS011;17667;45.598;5.214;2023-05-07T06:23:50;0.20;;;0.20;;
15577;SDS011;17667;45.598;5.214;2023-05-07T06:26:39;0.30;;;0.30;;
15577;SDS011;17667;45.598;5.214;2023-05-07T06:29:26;0.40;;;0.40;;
15577;SDS011;17667;45.598;5.214;2023-05-07T06:32:16;0.30;;;0.30;;
15577;SDS011;17667;45.598;5.214;2023-05-07T06:35:05;0.30;;;0.30;;
15577;SDS011;17667;45.598;5.214;2023-05-07T06:37:55;0.40;;;0.40;;
15577;SDS011;17667;45.598;5.214;2023-05-07T06:40:47;0.50;;;0.50;;
15577;SDS011;17667;45.598;5.214;2023-05-07T06:43:37;1.20;;;0.80;;
15577;SDS011;17667;45.598;5.214;2023-05-07T06:46:57;0.90;;;0.90;;
15577;SDS011;17667;45.598;5.214;2023-05-07T06:49:45;0.60;;;0.60;;
15577;SDS011;17667;45.598;5.214;2023-05-07T06:52:36;0.60;;;0.60;;
15577;SDS011;17667;45.598;5.214;2023-05-07T06:55:24;0.80;;;0.80;;
15577;SDS011;17667;45.598;5.214;2023-05-07T06:58:13;0.70;;;0.67;;
15577;SDS011;17667;45.598;5.214;2023-05-07T07:01:02;0.73;;;0.73;;
15577;SDS011;17667;45.598;5.214;2023-05-07T07:03:51;0.90;;;0.80;;
15577;SDS011;17667;45.598;5.214;2023-05-07T07:06:40;0.70;;;0.70;;
15577;SDS011;17667;45.598;5.214;2023-05-07T07:09:31;0.90;;;0.90;;
15577;SDS011;17667;45.598;5.214;2023-05-07T07:12:19;0.80;;;0.80;;
15577;SDS011;17667;45.598;5.214;2023-05-07T07:15:08;0.77;;;0.77;;
15577;SDS011;17667;45.598;5.214;2023-05-07T07:17:58;0.60;;;0.60;;
15577;SDS011;17667;45.598;5.214;2023-05-07T07:20:46;0.50;;;0.50;;
15577;SDS011;17667;45.598;5.214;2023-05-07T07:23:34;0.60;;;0.60;;
15577;SDS011;17667;45.598;5.214;2023-05-07T07:26:22;0.50;;;0.50;;
15577;SDS011;17667;45.598;5.214;2023-05-07T07:29:09;0.50;;;0.50;;
15577;SDS011;17667;45.598;5.214;2023-05-07T07:31:58;0.40;;;0.40;;
15577;SDS011;17667;45.598;5.214;2023-05-07T07:34:48;0.40;;;0.40;;
15577;SDS011;17667;45.598;5.214;2023-05-07T07:37:35;0.40;;;0.40;;
15577;SDS011;17667;45.598;5.214;2023-05-07T07:40:23;0.50;;;0.50;;
15577;SDS011;17667;45.598;5.214;2023-05-07T07:43:12;0.50;;;0.50;;
15577;SDS011;17667;45.598;5.214;2023-05-07T07:46:00;0.30;;;0.30;;
15577;SDS011;17667;45.598;5.214;2023-05-07T07:48:49;0.30;;;0.30;;
15577;SDS011;17667;45.598;5.214;2023-05-07T07:51:38;0.43;;;0.40;;
15577;SDS011;17667;45.598;5.214;2023-05-07T07:54:25;0.40;;;0.40;;
15577;SDS011;17667;45.598;5.214;2023-05-07T07:57:13;0.40;;;0.33;;
15577;SDS011;17667;45.598;5.214;2023-05-07T08:00:04;0.30;;;0.30;;
15577;SDS011;17667;45.598;5.214;2023-05-07T08:03:01;0.50;;;0.40;;
15577;SDS011;17667;45.598;5.214;2023-05-07T08:05:53;0.40;;;0.40;;
15577;SDS011;17667;45.598;5.214;2023-05-07T08:08:42;0.33;;;0.33;;
15577;SDS011;17667;45.598;5.214;2023-05-07T08:11:30;0.30;;;0.30;;
15577;SDS011;17667;45.598;5.214;2023-05-07T08:14:18;0.50;;;0.50;;
15577;SDS011;17667;45.598;5.214;2023-05-07T08:17:06;0.30;;;0.30;;
15577;SDS011;17667;45.598;5.214;2023-05-07T08:19:56;0.30;;;0.30;;
15577;SDS011;17667;45.598;5.214;2023-05-07T08:22:43;0.30;;;0.30;;
15577;SDS011;17667;45.598;5.214;2023-05-07T08:25:33;0.30;;;0.30;;
15577;SDS011;17667;45.598;5.214;2023-05-07T08:28:21;0.20;;;0.20;;
15577;SDS011;17667;45.598;5.214;2023-05-07T08:31:10;0.30;;;0.30;;
15577;SDS011;17667;45.598;5.214;2023-05-07T08:34:03;0.30;;;0.30;;
15577;SDS011;17667;45.598;5.214;2023-05-07T08:36:53;0.30;;;0.30;;
15577;SDS011;17667;45.598;5.214;2023-05-07T08:39:42;0.20;;;0.20;;
15577;SDS011;17667;45.598;5.214;2023-05-07T08:42:37;0.30;;;0.20;;
15577;SDS011;17667;45.598;5.214;2023-05-07T08:45:27;0.20;;;0.20;;
15577;SDS011;17667;45.598;5.214;2023-05-07T08:48:17;0.30;;;0.30;;
15577;SDS011;17667;45.598;5.214;2023-05-07T08:51:13;0.23;;;0.23;;
15577;SDS011;17667;45.598;5.214;2023-05-07T08:54:05;0.40;;;0.40;;
15577;SDS011;17667;45.598;5.214;2023-05-07T08:56:53;0.33;;;0.33;;
15577;SDS011;17667;45.598;5.214;2023-05-07T08:59:43;0.30;;;0.30;;
15577;SDS011;17667;45.598;5.214;2023-05-07T09:02:31;0.20;;;0.20;;
15577;SDS011;17667;45.598;5.214;2023-05-07T09:05:18;0.20;;;0.20;;
15577;SDS011;17667;45.598;5.214;2023-05-07T09:08:07;0.30;;;0.30;;
15577;SDS011;17667;45.598;5.214;2023-05-07T09:10:56;0.30;;;0.30;;
15577;SDS011;17667;45.598;5.214;2023-05-07T09:13:44;0.40;;;0.40;;
15577;SDS011;17667;45.598;5.214;2023-05-07T09:16:33;0.33;;;0.33;;
15577;SDS011;17667;45.598;5.214;2023-05-07T09:19:25;0.20;;;0.20;;
15577;SDS011;17667;45.598;5.214;2023-05-07T09:22:15;0.23;;;0.23;;
15577;SDS011;17667;45.598;5.214;2023-05-07T09:25:15;0.50;;;0.30;;
15577;SDS011;17667;45.598;5.214;2023-05-07T09:28:15;0.30;;;0.30;;
15577;SDS011;17667;45.598;5.214;2023-05-07T09:31:03;0.40;;;0.40;;
15577;SDS011;17667;45.598;5.214;2023-05-07T09:33:53;0.40;;;0.40;;
15577;SDS011;17667;45.598;5.214;2023-05-07T09:36:44;0.53;;;0.40;;
15577;SDS011;17667;45.598;5.214;2023-05-07T09:39:39;0.50;;;0.50;;
15577;SDS011;17667;45.598;5.214;2023-05-07T09:42:27;0.40;;;0.40;;
15577;SDS011;17667;45.598;5.214;2023-05-07T09:45:22;0.40;;;0.40;;
15577;SDS011;17667;45.598;5.214;2023-05-07T09:48:11;0.30;;;0.30;;
15577;SDS011;17667;45.598;5.214;2023-05-07T09:51:09;0.40;;;0.40;;
15577;SDS011;17667;45.598;5.214;2023-05-07T09:54:09;0.40;;;0.40;;
15577;SDS011;17667;45.598;5.214;2023-05-07T09:57:00;0.40;;;0.40;;
15577;SDS011;17667;45.598;5.214;2023-05-07T09:59:49;0.50;;;0.50;;
15577;SDS011;17667;45.598;5.214;2023-05-07T10:02:39;0.30;;;0.30;;
15577;SDS011;17667;45.598;5.214;2023-05-07T10:05:31;0.40;;;0.40;;
15577;SDS011;17667;45.598;5.214;2023-05-07T10:08:21;0.43;;;0.43;;
15577;SDS011;17667;45.598;5.214;2023-05-07T10:11:12;0.50;;;0.50;;
15577;SDS011;17667;45.598;5.214;2023-05-07T10:14:02;0.40;;;0.40;;
15577;SDS011;17667;45.598;5.214;2023-05-07T10:16:52;1.30;;;0.50;;
15577;SDS011;17667;45.598;5.214;2023-05-07T10:19:40;0.40;;;0.40;;
15577;SDS011;17667;45.598;5.214;2023-05-07T10:22:30;0.40;;;0.40;;
15577;SDS011;17667;45.598;5.214;2023-05-07T10:25:28;0.40;;;0.40;;
15577;SDS011;17667;45.598;5.214;2023-05-07T10:28:22;0.40;;;0.40;;
15577;SDS011;17667;45.598;5.214;2023-05-07T10:31:15;0.40;;;0.40;;
15577;SDS011;17667;45.598;5.214;2023-05-07T10:34:17;0.37;;;0.37;;
15577;SDS011;17667;45.598;5.214;2023-05-07T10:37:08;0.50;;;0.50;;
15577;SDS011;17667;45.598;5.214;2023-05-07T10:39:58;0.40;;;0.40;;
15577;SDS011;17667;45.598;5.214;2023-05-07T10:42:56;0.30;;;0.30;;
15577;SDS011;17667;45.598;5.214;2023-05-07T10:49:09;0.20;;;0.20;;
15577;SDS011;17667;45.598;5.214;2023-05-07T10:52:18;0.30;;;0.30;;
15577;SDS011;17667;45.598;5.214;2023-05-07T10:55:38;0.30;;;0.30;;
15577;SDS011;17667;45.598;5.214;2023-05-07T10:58:33;0.23;;;0.23;;
15577;SDS011;17667;45.598;5.214;2023-05-07T11:01:49;0.20;;;0.20;;
15577;SDS011;17667;45.598;5.214;2023-05-07T11:04:43;0.30;;;0.30;;
15577;SDS011;17667;45.598;5.214;2023-05-07T11:07:40;0.20;;;0.20;;
15577;SDS011;17667;45.598;5.214;2023-05-07T11:10:47;0.40;;;0.40;;
15577;SDS011;17667;45.598;5.214;2023-05-07T11:13:54;0.20;;;0.20;;
15577;SDS011;17667;45.598;5.214;2023-05-07T11:16:49;0.20;;;0.20;;
15577;SDS011;17667;45.598;5.214;2023-05-07T11:19:49;0.40;;;0.40;;
15577;SDS011;17667;45.598;5.214;2023-05-07T11:23:17;0.50;;;0.50;;
15577;SDS011;17667;45.598;5.214;2023-05-07T11:27:02;0.37;;;0.37;;
15577;SDS011;17667;45.598;5.214;2023-05-07T11:29:52;0.40;;;0.40;;
15577;SDS011;17667;45.598;5.214;2023-05-07T11:32:40;0.30;;;0.30;;
15577;SDS011;17667;45.598;5.214;2023-05-07T11:35:28;0.40;;;0.40;;
15577;SDS011;17667;45.598;5.214;2023-05-07T11:38:16;0.30;;;0.30;;
15577;SDS011;17667;45.598;5.214;2023-05-07T11:41:06;0.37;;;0.37;;
15577;SDS011;17667;45.598;5.214;2023-05-07T11:43:55;0.30;;;0.30;;
15577;SDS011;17667;45.598;5.214;2023-05-07T11:46:45;0.33;;;0.30;;
15577;SDS011;17667;45.598;5.214;2023-05-07T11:49:33;0.50;;;0.50;;
15577;SDS011;17667;45.598;5.214;2023-05-07T11:52:22;1.17;;;0.43;;
15577;SDS011;17667;45.598;5.214;2023-05-07T11:55:10;0.40;;;0.40;;
15577;SDS011;17667;45.598;5.214;2023-05-07T11:57:58;0.20;;;0.20;;
15577;SDS011;17667;45.598;5.214;2023-05-07T12:00:48;0.30;;;0.30;;
15577;SDS011;17667;45.598;5.214;2023-05-07T12:03:37;0.30;;;0.30;;
15577;SDS011;17667;45.598;5.214;2023-05-07T12:06:28;0.30;;;0.30;;
15577;SDS011;17667;45.598;5.214;2023-05-07T12:09:15;0.30;;;0.30;;
15577;SDS011;17667;45.598;5.214;2023-05-07T12:12:04;0.30;;;0.30;;
15577;SDS011;17667;45.598;5.214;2023-05-07T12:14:51;0.43;;;0.30;;
15577;SDS011;17667;45.598;5.214;2023-05-07T12:17:39;0.40;;;0.40;;
15577;SDS011;17667;45.598;5.214;2023-05-07T12:20:29;0.30;;;0.30;;
15577;SDS011;17667;45.598;5.214;2023-05-07T12:23:16;0.30;;;0.30;;
15577;SDS011;17667;45.598;5.214;2023-05-07T12:26:05;0.30;;;0.30;;
15577;SDS011;17667;45.598;5.214;2023-05-07T12:28:53;0.30;;;0.30;;
15577;SDS011;17667;45.598;5.214;2023-05-07T12:31:41;0.20;;;0.20;;
15577;SDS011;17667;45.598;5.214;2023-05-07T12:34:29;0.40;;;0.40;;
15577;SDS011;17667;45.598;5.214;2023-05-07T12:37:23;0.20;;;0.20;;
15577;SDS011;17667;45.598;5.214;2023-05-07T12:40:13;0.37;;;0.27;;
15577;SDS011;17667;45.598;5.214;2023-05-07T12:43:01;0.20;;;0.20;;
15577;SDS011;17667;45.598;5.214;2023-05-07T12:45:49;0.30;;;0.30;;
15577;SDS011;17667;45.598;5.214;2023-05-07T12:48:38;0.20;;;0.20;;
15577;SDS011;17667;45.598;5.214;2023-05-07T12:51:31;0.30;;;0.30;;
15577;SDS011;17667;45.598;5.214;2023-05-07T12:54:29;0.30;;;0.30;;
15577;SDS011;17667;45.598;5.214;2023-05-07T12:57:18;0.30;;;0.30;;
15577;SDS011;17667;45.598;5.214;2023-05-07T13:00:07;0.30;;;0.30;;
15577;SDS011;17667;45.598;5.214;2023-05-07T13:02:56;0.30;;;0.30;;
15577;SDS011;17667;45.598;5.214;2023-05-07T13:05:45;0.20;;;0.20;;
15577;SDS011;17667;45.598;5.214;2023-05-07T13:08:33;0.30;;;0.30;;
15577;SDS011;17667;45.598;5.214;2023-05-07T13:11:24;0.17;;;0.17;;
15577;SDS011;17667;45.598;5.214;2023-05-07T13:14:11;0.20;;;0.20;;
15577;SDS011;17667;45.598;5.214;2023-05-07T13:16:59;0.30;;;0.30;;
15577;SDS011;17667;45.598;5.214;2023-05-07T13:19:47;0.30;;;0.30;;
15577;SDS011;17667;45.598;5.214;2023-05-07T13:22:35;0.30;;;0.30;;
15577;SDS011;17667;45.598;5.214;2023-05-07T13:25:22;0.20;;;0.20;;
15577;SDS011;17667;45.598;5.214;2023-05-07T13:28:11;0.20;;;0.20;;
15577;SDS011;17667;45.598;5.214;2023-05-07T13:30:59;0.23;;;0.23;;
15577;SDS011;17667;45.598;5.214;2023-05-07T13:33:46;0.20;;;0.20;;
15577;SDS011;17667;45.598;5.214;2023-05-07T13:36:34;0.30;;;0.30;;
15577;SDS011;17667;45.598;5.214;2023-05-07T13:39:22;0.30;;;0.30;;
15577;SDS011;17667;45.598;5.214;2023-05-07T13:42:10;0.30;;;0.30;;
15577;SDS011;17667;45.598;5.214;2023-05-07T13:44:59;0.23;;;0.23;;
15577;SDS011;17667;45.598;5.214;2023-05-07T13:47:48;0.30;;;0.30;;
15577;SDS011;17667;45.598;5.214;2023-05-07T13:50:36;0.30;;;0.30;;
15577;SDS011;17667;45.598;5.214;2023-05-07T13:53:25;0.30;;;0.30;;
15577;SDS011;17667;45.598;5.214;2023-05-07T13:56:13;0.20;;;0.20;;
15577;SDS011;17667;45.598;5.214;2023-05-07T13:59:01;0.27;;;0.27;;
15577;SDS011;17667;45.598;5.214;2023-05-07T14:01:50;0.27;;;0.27;;
15577;SDS011;17667;45.598;5.214;2023-05-07T14:04:37;0.20;;;0.20;;
15577;SDS011;17667;45.598;5.214;2023-05-07T14:07:25;0.40;;;0.40;;
15577;SDS011;17667;45.598;5.214;2023-05-07T14:10:12;0.20;;;0.20;;
15577;SDS011;17667;45.598;5.214;2023-05-07T14:13:00;0.30;;;0.30;;
15577;SDS011;17667;45.598;5.214;2023-05-07T14:15:48;0.20;;;0.20;;
15577;SDS011;17667;45.598;5.214;2023-05-07T14:18:37;0.30;;;0.30;;
15577;SDS011;17667;45.598;5.214;2023-05-07T14:21:25;0.40;;;0.40;;
15577;SDS011;17667;45.598;5.214;2023-05-07T14:24:12;0.30;;;0.30;;
15577;SDS011;17667;45.598;5.214;2023-05-07T14:27:03;0.30;;;0.30;;
15577;SDS011;17667;45.598;5.214;2023-05-07T14:29:51;0.30;;;0.30;;
15577;SDS011;17667;45.598;5.214;2023-05-07T14:32:39;0.20;;;0.20;;
15577;SDS011;17667;45.598;5.214;2023-05-07T14:35:27;0.30;;;0.30;;
15577;SDS011;17667;45.598;5.214;2023-05-07T14:38:15;0.20;;;0.20;;
15577;SDS011;17667;45.598;5.214;2023-05-07T14:41:02;0.30;;;0.30;;
15577;SDS011;17667;45.598;5.214;2023-05-07T14:43:50;0.20;;;0.20;;
15577;SDS011;17667;45.598;5.214;2023-05-07T14:46:38;0.20;;;0.20;;
15577;SDS011;17667;45.598;5.214;2023-05-07T14:49:26;0.30;;;0.30;;
15577;SDS011;17667;45.598;5.214;2023-05-07T14:52:15;0.23;;;0.23;;
15577;SDS011;17667;45.598;5.214;2023-05-07T14:55:03;0.10;;;0.10;;
15577;SDS011;17667;45.598;5.214;2023-05-07T14:57:51;0.20;;;0.20;;
15577;SDS011;17667;45.598;5.214;2023-05-07T15:00:39;0.30;;;0.30;;
15577;SDS011;17667;45.598;5.214;2023-05-07T15:03:27;0.20;;;0.20;;
15577;SDS011;17667;45.598;5.214;2023-05-07T15:06:14;0.30;;;0.30;;
15577;SDS011;17667;45.598;5.214;2023-05-07T15:09:03;0.13;;;0.13;;
15577;SDS011;17667;45.598;5.214;2023-05-07T15:11:51;0.20;;;0.20;;
15577;SDS011;17667;45.598;5.214;2023-05-07T15:14:39;0.20;;;0.20;;
15577;SDS011;17667;45.598;5.214;2023-05-07T15:17:26;0.20;;;0.20;;
15577;SDS011;17667;45.598;5.214;2023-05-07T15:20:14;0.20;;;0.20;;
15577;SDS011;17667;45.598;5.214;2023-05-07T15:23:02;0.20;;;0.20;;
15577;SDS011;17667;45.598;5.214;2023-05-07T15:25:52;0.20;;;0.20;;
15577;SDS011;17667;45.598;5.214;2023-05-07T15:28:40;0.30;;;0.30;;
15577;SDS011;17667;45.598;5.214;2023-05-07T15:31:27;0.20;;;0.20;;
15577;SDS011;17667;45.598;5.214;2023-05-07T15:34:15;0.13;;;0.13;;
15577;SDS011;17667;45.598;5.214;2023-05-07T15:37:03;0.20;;;0.20;;
15577;SDS011;17667;45.598;5.214;2023-05-07T15:39:51;0.20;;;0.20;;
15577;SDS011;17667;45.598;5.214;2023-05-07T15:42:40;0.20;;;0.20;;
15577;SDS011;17667;45.598;5.214;2023-05-07T15:45:27;0.20;;;0.20;;
15577;SDS011;17667;45.598;5.214;2023-05-07T15:48:15;0.20;;;0.20;;
15577;SDS011;17667;45.598;5.214;2023-05-07T15:51:03;0.30;;;0.30;;
15577;SDS011;17667;45.598;5.214;2023-05-07T15:53:52;0.27;;;0.20;;
15577;SDS011;17667;45.598;5.214;2023-05-07T15:56:40;0.20;;;0.20;;
15577;SDS011;17667;45.598;5.214;2023-05-07T15:59:29;0.20;;;0.20;;
15577;SDS011;17667;45.598;5.214;2023-05-07T16:02:16;0.13;;;0.13;;
15577;SDS011;17667;45.598;5.214;2023-05-07T16:05:05;0.20;;;0.20;;
15577;SDS011;17667;45.598;5.214;2023-05-07T16:07:56;0.20;;;0.20;;
15577;SDS011;17667;45.598;5.214;2023-05-07T16:10:44;0.20;;;0.20;;
15577;SDS011;17667;45.598;5.214;2023-05-07T16:13:33;0.23;;;0.23;;
15577;SDS011;17667;45.598;5.214;2023-05-07T16:16:23;0.20;;;0.20;;
15577;SDS011;17667;45.598;5.214;2023-05-07T16:19:14;0.20;;;0.20;;
15577;SDS011;17667;45.598;5.214;2023-05-07T16:22:02;0.20;;;0.20;;
15577;SDS011;17667;45.598;5.214;2023-05-07T16:24:49;0.20;;;0.20;;
15577;SDS011;17667;45.598;5.214;2023-05-07T16:27:37;0.20;;;0.20;;
15577;SDS011;17667;45.598;5.214;2023-05-07T16:30:25;0.10;;;0.10;;
15577;SDS011;17667;45.598;5.214;2023-05-07T16:33:14;0.20;;;0.20;;
15577;SDS011;17667;45.598;5.214;2023-05-07T16:36:01;0.20;;;0.20;;
15577;SDS011;17667;45.598;5.214;2023-05-07T16:38:49;0.20;;;0.20;;
15577;SDS011;17667;45.598;5.214;2023-05-07T16:41:37;0.10;;;0.10;;
15577;SDS011;17667;45.598;5.214;2023-05-07T16:44:24;0.20;;;0.20;;
15577;SDS011;17667;45.598;5.214;2023-05-07T16:47:12;0.30;;;0.30;;
15577;SDS011;17667;45.598;5.214;2023-05-07T16:50:01;0.13;;;0.13;;
15577;SDS011;17667;45.598;5.214;2023-05-07T16:52:50;0.20;;;0.20;;
15577;SDS011;17667;45.598;5.214;2023-05-07T16:55:38;0.10;;;0.10;;
15577;SDS011;17667;45.598;5.214;2023-05-07T16:58:26;0.20;;;0.20;;
15577;SDS011;17667;45.598;5.214;2023-05-07T17:01:14;0.20;;;0.20;;
15577;SDS011;17667;45.598;5.214;2023-05-07T17:04:03;0.40;;;0.20;;
15577;SDS011;17667;45.598;5.214;2023-05-07T17:06:52;0.20;;;0.20;;